Time;durP1;ratioP1;P1;durP2;ratioP2;P2;SDS_P1;SDS_P2;PMS_P1;PMS_P2;Temp;Humidity;BMP_temperature;BMP_pressure;BME280_temperature;BME280_humidity;BME280_pressure;Samples;Min_cycle;Max_cycle;Signal;HPM_P1;HPM_P2
2022/04/16 00:02:45;;;;;;;4.90;3.90;;;12.50;99.90;;;;;;5091550;28;20400;-79
2022/04/16 00:05:30;;;;;;;5.63;4.10;;;12.40;99.90;;;;;;5091478;28;20432;-79
2022/04/16 00:08:15;;;;;;;8.30;3.80;;;12.50;99.90;;;;;;5089880;28;20396;-79
2022/04/16 00:11:00;;;;;;;4.13;3.37;;;12.50;99.90;;;;;;5074143;28;20424;-78
2022/04/16 00:13:49;;;;;;;4.13;3.67;;;12.60;99.90;;;;;;5092520;28;20456;-80
2022/04/16 00:16:33;;;;;;;6.03;4.40;;;12.40;99.90;;;;;;5093695;28;20393;-80
2022/04/16 00:19:19;;;;;;;3.53;3.07;;;12.20;99.90;;;;;;5094381;28;20452;-79
2022/04/16 00:22:07;;;;;;;5.13;3.57;;;12.30;99.90;;;;;;5094900;28;20404;-80
2022/04/16 00:24:51;;;;;;;3.73;3.17;;;12.40;99.90;;;;;;5095560;28;20416;-80
2022/04/16 00:27:37;;;;;;;4.70;3.60;;;12.30;99.90;;;;;;5094117;28;20401;-79
2022/04/16 00:30:22;;;;;;;4.07;2.70;;;12.20;99.90;;;;;;5094858;28;20465;-80
2022/04/16 00:33:07;;;;;;;8.23;3.60;;;12.30;99.90;;;;;;5093461;28;20912;-80
2022/04/16 00:35:51;;;;;;;4.40;3.70;;;12.40;99.90;;;;;;5093181;28;20439;-80
2022/04/16 00:38:36;;;;;;;4.17;3.83;;;11.80;99.90;;;;;;5094135;28;20393;-80
2022/04/16 00:41:23;;;;;;;4.77;3.33;;;11.60;99.90;;;;;;5094466;28;20388;-80
2022/04/16 00:44:08;;;;;;;3.37;3.07;;;11.90;99.90;;;;;;5092905;28;20385;-80
2022/04/16 00:46:53;;;;;;;4.03;2.83;;;12.00;99.90;;;;;;5094940;28;20436;-80
2022/04/16 00:49:38;;;;;;;9.03;4.30;;;12.10;99.90;;;;;;5094536;28;20385;-80
2022/04/16 00:52:23;;;;;;;3.67;3.37;;;12.10;99.90;;;;;;5092784;28;20421;-80
2022/04/16 00:55:08;;;;;;;3.50;3.00;;;11.90;99.90;;;;;;5093731;28;20432;-80
2022/04/16 00:57:54;;;;;;;8.13;4.50;;;12.00;99.90;;;;;;5090938;28;20413;-79
2022/04/16 01:00:39;;;;;;;5.53;4.03;;;11.70;99.90;;;;;;5088914;28;20709;-80
2022/04/16 01:03:25;;;;;;;5.23;4.10;;;12.00;99.90;;;;;;5094031;28;20439;-80
2022/04/16 01:06:14;;;;;;;4.70;3.70;;;12.10;99.90;;;;;;5083109;28;20436;-80
2022/04/16 01:09:00;;;;;;;5.53;3.47;;;12.20;99.90;;;;;;5096275;28;20893;-80
2022/04/16 01:11:44;;;;;;;4.60;3.90;;;12.30;99.90;;;;;;5093989;28;20397;-80
2022/04/16 01:14:29;;;;;;;5.63;3.97;;;11.80;99.90;;;;;;5063233;28;20448;-80
2022/04/16 01:17:14;;;;;;;6.40;4.37;;;11.80;99.90;;;;;;5093768;28;20400;-80
2022/04/16 01:20:02;;;;;;;6.50;3.30;;;11.80;99.90;;;;;;5094067;28;20397;-80
2022/04/16 01:22:47;;;;;;;5.27;4.77;;;11.80;99.90;;;;;;5093783;28;20455;-80
2022/04/16 01:25:33;;;;;;;5.73;3.87;;;11.60;99.90;;;;;;5092985;28;20443;-80
2022/04/16 01:28:18;;;;;;;4.60;3.70;;;11.40;99.90;;;;;;5090180;28;20447;-79
2022/04/16 01:31:02;;;;;;;4.63;4.23;;;11.70;99.90;;;;;;5085721;28;20445;-80
2022/04/16 01:33:46;;;;;;;4.03;3.53;;;11.90;99.90;;;;;;5092932;28;20446;-80
2022/04/16 01:36:31;;;;;;;5.20;4.67;;;12.00;99.90;;;;;;5092991;28;20452;-80
2022/04/16 01:39:16;;;;;;;5.93;4.77;;;11.80;99.90;;;;;;5092744;28;20396;-80
2022/04/16 01:42:00;;;;;;;7.13;4.97;;;11.70;99.90;;;;;;5092445;28;20412;-80
2022/04/16 01:44:45;;;;;;;5.83;4.13;;;11.70;99.90;;;;;;5092386;28;20444;-80
2022/04/16 01:47:30;;;;;;;5.63;3.40;;;11.70;99.90;;;;;;5092707;28;20389;-80
2022/04/16 01:50:14;;;;;;;8.30;4.37;;;11.90;99.90;;;;;;5097671;28;20419;-79
2022/04/16 01:52:59;;;;;;;5.17;3.50;;;12.00;99.90;;;;;;5099051;28;20457;-79
2022/04/16 01:55:44;;;;;;;4.20;3.80;;;12.10;99.90;;;;;;5098209;28;20441;-79
2022/04/16 01:58:28;;;;;;;4.30;3.90;;;12.00;99.90;;;;;;5091440;28;20392;-80
2022/04/16 02:01:13;;;;;;;5.30;4.10;;;11.80;99.90;;;;;;5092721;28;20385;-80
2022/04/16 02:03:59;;;;;;;4.43;3.97;;;11.80;99.90;;;;;;5092399;28;20401;-80
2022/04/16 02:06:43;;;;;;;6.43;3.90;;;11.90;99.90;;;;;;5092436;28;20381;-80
2022/04/16 02:09:28;;;;;;;4.97;4.00;;;11.90;99.90;;;;;;5077184;28;20439;-80
2022/04/16 02:12:13;;;;;;;7.17;4.17;;;11.60;99.90;;;;;;5092557;28;20376;-80
2022/04/16 02:14:57;;;;;;;4.63;3.80;;;11.70;99.90;;;;;;5092596;28;20397;-80
2022/04/16 02:17:42;;;;;;;5.43;4.57;;;11.80;99.90;;;;;;5090932;28;20910;-80
2022/04/16 02:20:27;;;;;;;6.30;5.23;;;11.80;99.90;;;;;;5091726;28;20388;-80
2022/04/16 02:23:12;;;;;;;8.43;6.63;;;11.80;99.90;;;;;;5078241;28;20376;-80
2022/04/16 02:25:57;;;;;;;5.53;5.00;;;11.80;99.90;;;;;;5092456;28;20579;-80
2022/04/16 02:28:41;;;;;;;8.53;6.67;;;11.80;99.90;;;;;;5087416;28;20405;-78
2022/04/16 02:31:27;;;;;;;9.00;5.73;;;11.60;99.90;;;;;;5090139;28;20499;-79
2022/04/16 02:34:11;;;;;;;11.23;8.03;;;11.60;99.90;;;;;;5091866;28;20404;-79
2022/04/16 02:36:58;;;;;;;12.50;7.50;;;11.50;99.90;;;;;;5079988;28;20393;-79
2022/04/16 02:39:42;;;;;;;14.50;9.53;;;11.40;99.90;;;;;;5098236;28;20404;-78
2022/04/16 02:42:27;;;;;;;13.57;8.87;;;11.30;99.90;;;;;;5098252;28;20407;-78
2022/04/16 02:48:12;;;;;;;19.37;10.60;;;11.10;99.90;;;;;;5078424;28;20501;-80
2022/04/16 02:50:57;;;;;;;14.20;10.37;;;11.10;99.90;;;;;;5092224;28;20489;-80
2022/04/16 02:53:42;;;;;;;11.07;9.23;;;11.00;99.90;;;;;;5091815;28;20407;-80
2022/04/16 02:56:27;;;;;;;13.47;9.60;;;11.10;99.90;;;;;;5096635;28;20473;-79
2022/04/16 02:59:12;;;;;;;9.90;8.60;;;11.10;99.90;;;;;;5096799;28;20400;-78
2022/04/16 03:01:57;;;;;;;15.50;9.10;;;10.70;99.90;;;;;;5096720;28;20408;-79
2022/04/16 03:04:42;;;;;;;10.40;8.50;;;10.10;99.90;;;;;;5096757;28;20444;-78
2022/04/16 03:07:27;;;;;;;10.07;8.40;;;10.30;99.90;;;;;;5093571;28;20385;-79
2022/04/16 03:10:12;;;;;;;12.33;7.87;;;10.30;99.90;;;;;;5091384;28;20417;-80
2022/04/16 03:12:56;;;;;;;10.67;7.77;;;10.20;99.90;;;;;;5089457;28;20432;-79
2022/04/16 03:18:45;;;;;;;13.37;9.43;;;9.80;99.90;;;;;;5095876;28;20420;-80
2022/04/16 03:21:29;;;;;;;10.87;8.20;;;9.90;99.90;;;;;;5096100;28;20411;-80
2022/04/16 03:24:14;;;;;;;12.87;8.10;;;9.80;99.90;;;;;;5095891;28;20447;-80
2022/04/16 03:26:58;;;;;;;11.53;8.10;;;10.00;99.90;;;;;;5095916;28;20385;-79
2022/04/16 03:29:43;;;;;;;11.67;8.30;;;10.10;99.90;;;;;;5092481;28;20435;-79
2022/04/16 03:32:27;;;;;;;10.27;8.10;;;9.70;99.90;;;;;;5094349;28;20384;-81
2022/04/16 03:35:12;;;;;;;16.20;8.50;;;9.90;99.90;;;;;;5093837;28;20412;-80
2022/04/16 03:37:57;;;;;;;10.40;8.13;;;10.00;99.90;;;;;;5077976;28;20412;-80
2022/04/16 03:40:41;;;;;;;12.00;8.60;;;10.00;99.90;;;;;;5093681;28;20454;-79
2022/04/16 03:43:29;;;;;;;13.67;9.87;;;9.90;99.90;;;;;;5094923;28;20384;-79
2022/04/16 03:46:14;;;;;;;12.57;8.93;;;9.30;99.90;;;;;;5091791;28;20460;-80
2022/04/16 03:48:59;;;;;;;10.50;8.23;;;9.50;99.90;;;;;;5092044;28;20417;-80
2022/04/16 03:51:44;;;;;;;15.23;10.40;;;9.80;99.90;;;;;;5094905;28;20412;-80
2022/04/16 04:00:33;;;;;;;14.63;9.90;;;9.80;99.90;;;;;;5093048;28;20439;-80
2022/04/16 04:03:18;;;;;;;14.83;10.17;;;9.50;99.90;;;;;;5092266;28;20385;-80
2022/04/16 04:06:04;;;;;;;14.70;10.13;;;9.80;99.90;;;;;;5092950;28;20947;-80
2022/04/16 04:08:49;;;;;;;14.60;10.60;;;9.60;99.90;;;;;;5092212;28;20408;-80
2022/04/16 04:11:33;;;;;;;14.73;10.23;;;9.70;99.90;;;;;;5093867;28;20392;-80
2022/04/16 04:14:17;;;;;;;18.50;10.80;;;9.60;99.90;;;;;;5094621;28;20448;-80
2022/04/16 04:17:02;;;;;;;14.30;9.60;;;9.50;99.90;;;;;;5094927;28;20416;-80
2022/04/16 04:19:48;;;;;;;12.27;8.90;;;9.60;99.90;;;;;;5094659;28;20444;-80
2022/04/16 04:22:32;;;;;;;10.83;7.80;;;9.60;99.90;;;;;;5095319;28;20408;-79
2022/04/16 04:25:17;;;;;;;11.83;8.20;;;9.60;99.90;;;;;;5080488;28;20447;-78
2022/04/16 04:28:02;;;;;;;13.97;8.53;;;9.50;99.90;;;;;;5085121;28;20390;-78
2022/04/16 04:30:47;;;;;;;11.40;8.50;;;9.40;99.90;;;;;;5092703;28;20404;-80
2022/04/16 04:33:33;;;;;;;12.03;8.30;;;9.40;99.90;;;;;;5079239;28;20377;-79
2022/04/16 04:36:17;;;;;;;12.40;8.67;;;9.50;99.90;;;;;;5080134;28;20385;-80
2022/04/16 04:39:02;;;;;;;8.60;6.73;;;9.70;99.90;;;;;;5094866;28;20385;-80
2022/04/16 04:41:46;;;;;;;9.07;6.80;;;9.70;99.90;;;;;;5094081;28;20477;-79
2022/04/16 04:44:31;;;;;;;15.03;8.07;;;9.20;99.90;;;;;;5094140;28;20432;-80
2022/04/16 04:47:15;;;;;;;12.37;8.30;;;9.30;99.90;;;;;;5094790;28;20396;-80
2022/04/16 04:50:00;;;;;;;15.97;7.43;;;9.40;99.90;;;;;;5090950;28;20523;-81
2022/04/16 04:52:45;;;;;;;10.13;7.03;;;9.30;99.90;;;;;;5095184;28;20386;-80
2022/04/16 04:55:29;;;;;;;12.10;7.40;;;9.30;99.90;;;;;;5095888;28;20436;-80
2022/04/16 04:58:14;;;;;;;10.97;7.27;;;9.60;99.90;;;;;;5092422;28;20393;-80
2022/04/16 05:00:58;;;;;;;9.50;6.80;;;9.60;99.90;;;;;;5089239;28;20455;-80
2022/04/16 05:03:43;;;;;;;9.50;7.50;;;9.70;99.90;;;;;;5089249;28;20436;-80
2022/04/16 05:06:27;;;;;;;9.67;6.67;;;9.90;99.90;;;;;;5087358;28;20386;-80
2022/04/16 05:09:12;;;;;;;9.40;6.90;;;10.00;99.90;;;;;;5072556;28;20397;-80
2022/04/16 05:11:56;;;;;;;13.23;6.83;;;10.00;99.90;;;;;;5088821;28;20373;-79
2022/04/16 05:14:41;;;;;;;6.87;6.13;;;10.10;99.90;;;;;;5093206;28;20432;-79
2022/04/16 05:17:25;;;;;;;9.90;6.50;;;10.10;99.90;;;;;;5093485;28;20393;-80
2022/04/16 05:20:10;;;;;;;8.70;6.23;;;9.90;99.90;;;;;;5090019;28;20384;-80
2022/04/16 05:22:55;;;;;;;9.10;6.37;;;10.10;99.90;;;;;;5089750;28;20397;-80
2022/04/16 05:25:40;;;;;;;14.40;6.60;;;10.10;99.90;;;;;;5079411;28;20445;-79
2022/04/16 05:28:25;;;;;;;10.80;5.93;;;9.90;99.90;;;;;;5088709;28;20401;-80
2022/04/16 05:31:09;;;;;;;9.83;6.70;;;10.00;99.90;;;;;;5090828;28;20465;-80
2022/04/16 05:36:54;;;;;;;7.90;6.60;;;9.80;99.90;;;;;;5094538;28;20443;-79
2022/04/16 05:39:39;;;;;;;10.00;5.93;;;9.60;99.90;;;;;;5061922;28;20408;-80
2022/04/16 05:42:23;;;;;;;10.80;6.73;;;9.60;99.90;;;;;;5092831;28;20385;-79
2022/04/16 05:45:09;;;;;;;8.37;5.80;;;9.40;99.90;;;;;;5093358;28;20448;-79
2022/04/16 05:47:54;;;;;;;11.17;7.70;;;9.40;99.90;;;;;;5092975;28;20397;-79
2022/04/16 05:50:39;;;;;;;7.70;6.30;;;9.30;99.90;;;;;;5089184;28;20431;-80
2022/04/16 05:53:24;;;;;;;9.07;5.87;;;9.40;99.90;;;;;;5090666;28;20417;-80
2022/04/16 05:56:12;;;;;;;7.37;5.83;;;9.70;99.90;;;;;;5076133;28;20444;-79
2022/04/16 05:58:59;;;;;;;8.63;6.03;;;9.80;99.90;;;;;;5075128;28;20389;-79
2022/04/16 06:01:43;;;;;;;13.13;6.10;;;10.00;99.90;;;;;;5091802;28;20416;-80
2022/04/16 06:04:31;;;;;;;9.70;6.63;;;10.10;99.90;;;;;;5090205;28;20487;-79
2022/04/16 06:07:15;;;;;;;10.13;5.80;;;10.20;99.90;;;;;;5091904;28;20428;-80
2022/04/16 06:10:00;;;;;;;9.17;6.00;;;10.00;99.90;;;;;;5075305;28;20397;-80
2022/04/16 06:12:45;;;;;;;10.90;7.67;;;10.00;99.90;;;;;;5092123;28;20427;-80
2022/04/16 06:15:32;;;;;;;11.40;7.23;;;10.00;99.90;;;;;;5092174;28;20408;-79
2022/04/16 06:18:16;;;;;;;14.57;7.30;;;10.00;99.90;;;;;;5092213;28;20920;-80
2022/04/16 06:21:01;;;;;;;10.50;7.07;;;10.00;99.90;;;;;;5076645;28;20381;-79
2022/04/16 06:23:46;;;;;;;15.70;8.60;;;9.40;99.90;;;;;;5089505;28;20432;-80
2022/04/16 06:26:30;;;;;;;10.03;7.53;;;9.50;99.90;;;;;;5089929;28;20373;-80
2022/04/16 06:29:16;;;;;;;8.73;7.77;;;9.50;99.90;;;;;;5090958;28;20533;-79
2022/04/16 06:32:00;;;;;;;14.33;9.10;;;9.50;99.90;;;;;;5091245;28;20377;-79
2022/04/16 06:34:45;;;;;;;7.87;7.10;;;9.10;99.90;;;;;;5091624;28;20392;-79
2022/04/16 06:37:49;;;;;;;8.17;7.37;;;9.20;99.90;;;;;;5088670;28;20409;-80
2022/04/16 06:40:34;;;;;;;11.40;7.60;;;9.10;99.90;;;;;;5025138;28;20483;-79
2022/04/16 06:43:18;;;;;;;8.40;6.90;;;8.70;99.90;;;;;;5026014;28;20391;-79
2022/04/16 06:46:03;;;;;;;11.57;7.53;;;8.70;99.90;;;;;;5027907;28;20538;-80
2022/04/16 06:48:47;;;;;;;10.10;6.87;;;8.80;99.90;;;;;;5023323;28;20403;-80
2022/04/16 06:51:32;;;;;;;8.10;6.10;;;8.50;99.90;;;;;;5028870;28;20419;-80
2022/04/16 06:54:17;;;;;;;7.73;5.87;;;8.80;99.90;;;;;;5002060;28;20424;-78
2022/04/16 06:57:02;;;;;;;6.90;5.73;;;8.90;99.90;;;;;;5029465;28;20427;-80
2022/04/16 06:59:47;;;;;;;12.53;6.00;;;8.70;99.90;;;;;;5030014;28;20452;-79
2022/04/16 07:02:32;;;;;;;10.77;5.87;;;8.80;99.90;;;;;;5031936;28;20551;-80
2022/04/16 07:05:16;;;;;;;7.60;6.60;;;8.50;99.90;;;;;;5028278;28;20458;-79
2022/04/16 07:08:01;;;;;;;9.33;6.70;;;8.70;99.90;;;;;;5015703;28;20411;-80
2022/04/16 07:10:45;;;;;;;8.30;6.10;;;8.80;99.90;;;;;;5048163;28;20416;-80
2022/04/16 07:13:30;;;;;;;12.67;7.20;;;9.00;99.90;;;;;;5090493;28;20444;-79
2022/04/16 07:16:34;;;;;;;8.40;6.50;;;9.00;99.90;;;;;;5090071;28;20439;-79
2022/04/16 07:19:19;;;;;;;7.63;5.27;;;8.90;99.90;;;;;;5028735;28;20511;-80
2022/04/16 07:22:03;;;;;;;5.40;4.90;;;8.60;99.90;;;;;;5030834;28;20431;-80
2022/04/16 07:24:49;;;;;;;8.20;5.00;;;8.80;99.90;;;;;;5028882;28;20443;-79
2022/04/16 07:27:34;;;;;;;7.17;5.23;;;8.70;99.90;;;;;;5030205;28;20484;-80
2022/04/16 07:30:18;;;;;;;11.77;7.03;;;8.80;99.90;;;;;;5017022;28;20464;-80
2022/04/16 07:33:03;;;;;;;7.80;5.37;;;8.70;99.90;;;;;;5031606;28;20407;-78
2022/04/16 07:35:48;;;;;;;7.73;5.97;;;8.40;99.90;;;;;;5031312;28;20391;-81
2022/04/16 07:38:32;;;;;;;8.70;5.27;;;8.30;99.90;;;;;;5004956;28;20402;-80
2022/04/16 07:41:16;;;;;;;6.13;5.10;;;8.50;99.90;;;;;;5007079;28;20395;-80
2022/04/16 07:44:03;;;;;;;7.57;6.37;;;9.10;99.90;;;;;;5024561;28;20407;-80
2022/04/16 07:46:47;;;;;;;6.83;6.13;;;9.40;99.90;;;;;;5033104;28;20428;-80
2022/04/16 07:49:31;;;;;;;5.97;5.30;;;9.60;99.90;;;;;;5036764;28;20416;-81
2022/04/16 07:52:16;;;;;;;10.17;5.60;;;9.70;99.90;;;;;;5098740;28;20466;-80
2022/04/16 07:55:01;;;;;;;7.17;6.23;;;9.60;99.90;;;;;;5099290;28;20424;-80
2022/04/16 07:57:47;;;;;;;6.40;4.70;;;10.00;99.90;;;;;;5097035;28;20477;-80
2022/04/16 08:00:31;;;;;;;6.50;5.00;;;10.20;99.90;;;;;;5079274;28;20400;-80
2022/04/16 08:03:16;;;;;;;9.93;6.10;;;10.20;99.90;;;;;;5093102;28;20398;-81
2022/04/16 08:06:00;;;;;;;6.57;5.13;;;10.40;99.90;;;;;;5077207;28;20436;-81
2022/04/16 08:08:48;;;;;;;4.83;4.10;;;10.90;99.90;;;;;;5093057;28;20444;-80
2022/04/16 08:11:33;;;;;;;5.90;4.77;;;10.60;99.90;;;;;;5093051;28;20407;-80
2022/04/16 08:14:20;;;;;;;4.53;3.80;;;10.30;99.90;;;;;;5062869;28;20475;-80
2022/04/16 08:17:06;;;;;;;7.77;4.23;;;10.40;99.90;;;;;;5092933;28;20436;-79
2022/04/16 08:19:50;;;;;;;7.00;3.80;;;9.90;99.90;;;;;;5077700;28;20389;-80
2022/04/16 08:22:35;;;;;;;3.40;3.03;;;9.80;99.90;;;;;;5092074;28;20401;-80
2022/04/16 08:28:24;;;;;;;4.53;3.50;;;9.70;99.90;;;;;;5080352;28;20405;-80
2022/04/16 08:31:09;;;;;;;4.87;3.70;;;9.90;99.90;;;;;;5091313;28;20459;-80
2022/04/16 08:33:54;;;;;;;5.37;3.27;;;9.80;99.90;;;;;;5077852;28;20432;-81
2022/04/16 08:36:39;;;;;;;4.20;3.37;;;9.50;99.90;;;;;;5093210;28;20397;-81
2022/04/16 08:39:24;;;;;;;3.23;3.00;;;10.00;99.90;;;;;;5093506;28;20397;-79
2022/04/16 08:42:09;;;;;;;3.23;2.93;;;9.90;99.90;;;;;;5077972;28;20400;-80
2022/04/16 08:44:54;;;;;;;2.87;2.67;;;9.80;99.90;;;;;;5093583;28;20556;-79
2022/04/16 08:47:40;;;;;;;3.17;2.93;;;10.50;99.90;;;;;;5094049;28;20409;-80
2022/04/16 08:50:25;;;;;;;5.53;3.57;;;10.60;99.90;;;;;;5076073;28;20389;-79
2022/04/16 08:53:10;;;;;;;3.03;2.83;;;10.90;99.90;;;;;;5078271;28;20376;-78
2022/04/16 08:55:56;;;;;;;4.00;3.60;;;11.10;99.90;;;;;;5051985;28;20516;-80
2022/04/16 08:58:41;;;;;;;3.10;2.90;;;11.10;99.90;;;;;;5054495;28;20398;-80
2022/04/16 09:01:26;;;;;;;3.67;3.33;;;11.30;99.90;;;;;;5026572;28;20426;-79
2022/04/16 09:04:32;;;;;;;3.40;3.10;;;11.00;99.90;;;;;;5054340;28;20547;-78
2022/04/16 09:07:16;;;;;;;6.33;4.13;;;11.40;99.90;;;;;;5040458;28;20444;-79
2022/04/16 09:10:08;;;;;;;4.93;4.20;;;11.10;99.90;;;;;;5054181;28;20399;-80
2022/04/16 09:12:55;;;;;;;3.77;3.47;;;10.40;99.90;;;;;;5053392;28;20446;-80
2022/04/16 09:15:44;;;;;;;4.10;3.70;;;11.00;99.90;;;;;;5026972;28;20406;-79
2022/04/16 09:18:28;;;;;;;3.70;3.40;;;11.30;99.90;;;;;;5027253;28;20491;-79
2022/04/16 09:21:14;;;;;;;3.93;3.63;;;11.70;99.90;;;;;;5054620;28;20398;-80
2022/04/16 09:24:01;;;;;;;3.83;3.53;;;11.90;99.90;;;;;;5027546;28;20462;-80
2022/04/16 09:26:51;;;;;;;3.33;3.03;;;12.00;99.90;;;;;;5055183;28;20490;-81
2022/04/16 09:29:35;;;;;;;3.57;3.27;;;11.50;99.90;;;;;;5094146;28;20388;-80
2022/04/16 09:32:24;;;;;;;3.70;3.33;;;11.00;99.90;;;;;;5048334;28;20511;-80
2022/04/16 09:35:21;;;;;;;3.93;3.60;;;11.00;99.90;;;;;;5061427;28;20466;-78
2022/04/16 09:38:07;;;;;;;5.57;4.20;;;11.90;99.90;;;;;;5076238;28;20381;-80
2022/04/16 09:40:51;;;;;;;3.87;3.57;;;11.50;99.90;;;;;;5089583;28;20384;-79
2022/04/16 09:43:36;;;;;;;4.90;3.90;;;12.20;99.90;;;;;;5083757;28;20381;-81
2022/04/16 09:46:23;;;;;;;3.50;3.20;;;12.40;96.60;;;;;;5083651;28;20459;-80
2022/04/16 09:49:07;;;;;;;10.90;3.10;;;12.60;94.90;;;;;;5068445;28;20439;-80
2022/04/16 09:51:53;;;;;;;2.97;2.70;;;12.60;95.60;;;;;;5069046;28;20435;-80
2022/04/16 09:54:39;;;;;;;2.93;2.47;;;12.80;90.80;;;;;;5088547;28;20397;-81
2022/04/16 09:57:30;;;;;;;3.10;2.90;;;12.00;86.20;;;;;;5072145;28;20392;-81
2022/04/16 10:00:17;;;;;;;3.37;3.10;;;12.40;88.00;;;;;;5085580;28;20409;-81
2022/04/16 10:03:06;;;;;;;3.17;2.97;;;12.20;84.70;;;;;;5090853;28;20515;-80
2022/04/16 10:06:12;;;;;;;3.67;3.37;;;13.00;91.10;;;;;;5069784;28;20492;-81
2022/04/16 10:08:58;;;;;;;3.80;3.00;;;13.30;78.10;;;;;;5053303;28;20445;-80
2022/04/16 10:14:54;;;;;;;5.30;2.97;;;12.50;80.90;;;;;;5051454;28;20908;-80
2022/04/16 10:17:54;;;;;;;3.87;3.57;;;12.10;86.50;;;;;;5048910;28;20417;-79
2022/04/16 10:20:50;;;;;;;2.43;2.23;;;12.30;76.20;;;;;;5062099;28;20441;-80
2022/04/16 10:23:40;;;;;;;3.47;2.90;;;12.60;78.80;;;;;;5062891;28;20494;-80
2022/04/16 10:26:24;;;;;;;3.30;2.90;;;12.70;77.40;;;;;;5060256;28;20461;-81
2022/04/16 10:29:09;;;;;;;3.00;2.80;;;12.40;72.40;;;;;;5062881;28;20421;-80
2022/04/16 10:32:15;;;;;;;2.87;2.67;;;12.10;74.00;;;;;;5047739;28;20490;-80
2022/04/16 10:35:04;;;;;;;2.83;2.47;;;12.50;79.20;;;;;;5042967;28;20581;-80
2022/04/16 10:37:49;;;;;;;3.17;2.70;;;13.50;76.80;;;;;;5044758;28;20484;-80
2022/04/16 10:40:41;;;;;;;3.33;2.93;;;13.70;72.60;;;;;;5032092;28;20440;-80
2022/04/16 10:43:32;;;;;;;3.03;2.83;;;12.90;76.70;;;;;;5046455;28;20438;-81
2022/04/16 10:46:17;;;;;;;2.53;2.30;;;13.00;79.00;;;;;;5046422;28;20509;-80
2022/04/16 10:49:06;;;;;;;4.00;3.77;;;14.20;75.20;;;;;;5059359;28;20520;-79
2022/04/16 10:51:52;;;;;;;5.43;3.00;;;15.00;74.30;;;;;;5031263;28;20749;-79
2022/04/16 10:54:37;;;;;;;3.43;3.00;;;15.10;70.20;;;;;;5059032;28;20429;-80
2022/04/16 10:57:22;;;;;;;3.73;3.33;;;14.20;66.60;;;;;;5030554;28;20409;-80
2022/04/16 11:00:12;;;;;;;4.60;4.20;;;15.60;70.60;;;;;;5044489;28;20808;-82
2022/04/16 11:03:10;;;;;;;4.23;3.73;;;15.60;66.50;;;;;;5045484;28;20477;-80
2022/04/16 11:06:07;;;;;;;5.33;3.70;;;14.50;64.90;;;;;;5058270;28;20827;-82
2022/04/16 11:08:57;;;;;;;3.63;3.07;;;16.00;61.20;;;;;;5080900;28;20417;-81
2022/04/16 11:11:43;;;;;;;4.10;3.00;;;16.90;59.90;;;;;;5080765;28;20448;-82
2022/04/16 11:14:37;;;;;;;3.00;2.80;;;16.70;58.70;;;;;;5051093;28;20517;-80
2022/04/16 11:17:24;;;;;;;3.80;3.30;;;17.00;57.20;;;;;;5050907;28;20393;-81
2022/04/16 11:20:09;;;;;;;4.33;2.83;;;17.20;56.80;;;;;;5079934;28;20405;-81
2022/04/16 11:22:54;;;;;;;4.30;3.97;;;16.20;57.50;;;;;;5064800;28;20400;-81
2022/04/16 11:34:57;;;;;;;3.20;2.97;;;15.30;60.20;;;;;;5080879;28;20438;-81
2022/04/16 11:37:41;;;;;;;3.60;3.30;;;15.80;61.20;;;;;;5069060;28;20393;-79
2022/04/16 11:40:26;;;;;;;3.30;3.10;;;16.60;58.10;;;;;;5091266;28;20381;-81
2022/04/16 11:43:13;;;;;;;2.93;2.73;;;16.10;58.80;;;;;;5092506;28;20449;-78
2022/04/16 11:46:01;;;;;;;3.07;2.87;;;16.10;58.40;;;;;;5092349;28;20456;-77
2022/04/16 11:49:05;;;;;;;2.93;2.73;;;16.20;57.40;;;;;;5086482;28;20401;-81
2022/04/16 11:51:50;;;;;;;2.93;2.40;;;15.90;56.20;;;;;;5021693;28;20395;-81
2022/04/16 11:54:35;;;;;;;2.57;2.10;;;17.20;56.40;;;;;;5022807;28;20392;-81
2022/04/16 11:57:21;;;;;;;2.60;2.40;;;17.60;58.70;;;;;;5022226;28;20395;-80
2022/04/16 12:00:10;;;;;;;3.33;2.90;;;17.90;55.60;;;;;;4994767;28;20773;-78
2022/04/16 12:02:56;;;;;;;6.20;2.77;;;16.60;53.00;;;;;;5007956;28;20387;-81
2022/04/16 12:05:42;;;;;;;2.07;1.97;;;18.30;53.40;;;;;;5021655;28;20455;-81
2022/04/16 12:08:27;;;;;;;1.87;1.77;;;18.80;53.10;;;;;;5001580;28;20409;-80
2022/04/16 12:11:13;;;;;;;3.47;3.27;;;19.10;50.80;;;;;;5005747;28;20408;-82
2022/04/16 12:13:58;;;;;;;2.63;2.43;;;17.20;49.10;;;;;;5011912;28;20966;-84
2022/04/16 12:16:43;;;;;;;2.80;2.60;;;16.60;53.10;;;;;;5017757;28;20424;-84
2022/04/16 12:19:33;;;;;;;1.77;1.67;;;17.20;52.50;;;;;;5006154;28;20396;-82
2022/04/16 12:22:18;;;;;;;3.20;2.33;;;17.10;49.20;;;;;;5044145;28;20448;-81
2022/04/16 12:25:09;;;;;;;2.27;2.07;;;16.40;51.30;;;;;;5081477;28;20464;-80
2022/04/16 12:27:55;;;;;;;2.07;1.97;;;16.40;50.60;;;;;;5095553;28;20402;-84
2022/04/16 12:30:47;;;;;;;1.70;1.60;;;16.20;53.60;;;;;;5081861;28;20365;-83
2022/04/16 12:33:32;;;;;;;7.33;4.10;;;15.80;51.90;;;;;;5081797;28;20380;-83
2022/04/16 12:36:17;;;;;;;1.90;1.80;;;15.80;53.70;;;;;;5067635;28;20415;-84
2022/04/16 12:39:01;;;;;;;2.60;2.40;;;16.20;53.90;;;;;;5080975;28;20384;-85
2022/04/16 12:41:46;;;;;;;3.37;2.47;;;16.70;52.90;;;;;;5079274;28;20408;-84
2022/04/16 12:44:31;;;;;;;1.87;1.77;;;16.80;50.20;;;;;;5094857;28;20444;-80
2022/04/16 12:47:16;;;;;;;1.90;1.80;;;19.10;51.40;;;;;;5050768;28;20385;-84
2022/04/16 12:50:05;;;;;;;2.20;2.00;;;19.00;47.70;;;;;;5049846;28;20457;-80
2022/04/16 12:52:50;;;;;;;1.63;1.53;;;18.40;49.70;;;;;;5027230;28;20405;-82
2022/04/16 12:55:35;;;;;;;5.33;2.00;;;17.70;47.10;;;;;;5082784;28;20428;-81
2022/04/16 12:58:20;;;;;;;3.10;1.80;;;17.80;47.20;;;;;;5081963;28;20385;-82
2022/04/16 13:01:04;;;;;;;2.77;2.13;;;19.20;50.10;;;;;;5019384;28;20459;-82
2022/04/16 13:03:49;;;;;;;2.50;1.80;;;17.50;47.60;;;;;;5021128;28;20511;-81
2022/04/16 13:06:33;;;;;;;3.13;1.77;;;17.30;50.70;;;;;;5018765;28;20444;-82
2022/04/16 13:09:18;;;;;;;3.63;1.73;;;16.60;48.70;;;;;;5004814;28;20415;-81
2022/04/16 13:12:03;;;;;;;2.40;1.50;;;17.10;49.00;;;;;;4990897;28;20400;-82
2022/04/16 13:14:48;;;;;;;4.70;3.00;;;17.30;49.40;;;;;;5017892;28;20480;-82
2022/04/16 13:17:33;;;;;;;1.83;1.67;;;18.50;49.90;;;;;;4996712;28;20467;-82
2022/04/16 13:20:17;;;;;;;1.90;1.80;;;16.60;46.60;;;;;;5017809;28;20404;-82
2022/04/16 13:23:03;;;;;;;2.10;1.70;;;16.10;46.90;;;;;;5004727;28;20395;-82
2022/04/16 13:25:47;;;;;;;3.23;1.57;;;17.20;49.70;;;;;;5019714;28;20470;-83
2022/04/16 13:28:32;;;;;;;1.87;1.77;;;16.80;48.90;;;;;;5018801;28;20411;-80
2022/04/16 13:31:16;;;;;;;1.87;1.70;;;18.70;46.70;;;;;;5010131;28;20402;-83
2022/04/16 13:34:01;;;;;;;2.90;2.60;;;17.00;47.90;;;;;;5037740;28;20432;-84
2022/04/16 13:36:48;;;;;;;4.17;1.60;;;17.50;47.60;;;;;;5023867;28;20386;-80
2022/04/16 13:42:31;;;;;;;2.20;2.00;;;19.00;48.30;;;;;;5038467;28;20387;-84
2022/04/16 13:45:15;;;;;;;2.03;1.93;;;18.90;47.20;;;;;;5036703;28;20450;-82
2022/04/16 13:48:00;;;;;;;3.50;1.90;;;17.90;44.40;;;;;;5037753;28;20433;-83
2022/04/16 13:50:46;;;;;;;1.80;1.70;;;17.90;44.90;;;;;;5009534;28;20407;-83
2022/04/16 13:53:30;;;;;;;3.63;1.83;;;17.90;45.40;;;;;;5037576;28;20422;-81
2022/04/16 13:56:15;;;;;;;1.67;1.53;;;17.10;42.30;;;;;;5036951;28;20537;-82
2022/04/16 13:59:00;;;;;;;3.57;1.80;;;17.60;46.70;;;;;;5037857;28;20779;-82
2022/04/16 14:01:48;;;;;;;3.67;1.83;;;16.30;44.90;;;;;;5040153;28;21016;-82
2022/04/16 14:07:34;;;;;;;2.40;1.77;;;16.20;47.30;;;;;;5079544;28;20401;-83
2022/04/16 14:10:20;;;;;;;4.43;2.00;;;16.50;47.10;;;;;;5079355;28;20389;-82
2022/04/16 14:13:06;;;;;;;1.93;1.83;;;17.60;47.70;;;;;;5080087;28;20452;-84
2022/04/16 14:15:50;;;;;;;1.60;1.50;;;17.10;47.40;;;;;;5059480;28;20388;-82
2022/04/16 14:18:35;;;;;;;2.87;1.70;;;17.80;46.90;;;;;;5066478;28;20419;-82
2022/04/16 14:21:19;;;;;;;2.03;1.70;;;17.00;44.80;;;;;;5079509;28;20506;-82
2022/04/16 14:24:04;;;;;;;5.20;2.30;;;15.90;46.70;;;;;;5079434;28;20412;-82
2022/04/16 14:26:49;;;;;;;3.30;2.73;;;15.70;49.60;;;;;;5044195;28;20388;-83
2022/04/16 14:29:33;;;;;;;2.10;2.00;;;16.40;50.10;;;;;;5079082;28;20557;-81
2022/04/16 14:32:19;;;;;;;1.80;1.70;;;16.00;52.60;;;;;;5080194;28;20419;-81
2022/04/16 14:35:05;;;;;;;3.10;2.27;;;16.70;51.10;;;;;;5080102;28;20419;-79
2022/04/16 14:37:55;;;;;;;2.03;1.70;;;17.80;53.20;;;;;;5074129;28;20942;-79
2022/04/16 14:40:41;;;;;;;3.33;2.00;;;17.50;49.90;;;;;;5073760;28;20389;-79
2022/04/16 14:43:26;;;;;;;4.50;2.13;;;16.90;51.00;;;;;;5081568;28;20373;-80
2022/04/16 14:46:14;;;;;;;2.13;1.93;;;18.50;52.70;;;;;;5080462;28;20436;-79
2022/04/16 14:49:14;;;;;;;2.60;2.40;;;17.10;49.20;;;;;;5052038;28;20532;-79
2022/04/16 14:51:59;;;;;;;3.67;3.37;;;17.40;50.80;;;;;;5068668;28;20459;-82
2022/04/16 14:54:44;;;;;;;3.13;2.83;;;17.60;50.90;;;;;;5067627;28;20745;-82
2022/04/16 14:57:28;;;;;;;4.03;2.40;;;16.20;48.20;;;;;;5083136;28;20408;-81
2022/04/16 15:00:15;;;;;;;6.20;2.47;;;16.50;49.70;;;;;;5067466;28;20420;-81
2022/04/16 15:02:59;;;;;;;2.60;1.67;;;16.60;49.50;;;;;;5083117;28;20449;-81